createdAt,value
2022-10-28T00:01:14.261Z,15.64
2022-10-28T00:03:43.398Z,15.62
2022-10-28T00:06:23.017Z,15.68
2022-10-28T00:08:49.819Z,15.59
2022-10-28T00:11:18.691Z,15.49
2022-10-28T00:13:45.796Z,15.37
2022-10-28T00:16:18.384Z,15.29
2022-10-28T00:18:45.368Z,15.31
2022-10-28T00:21:15.401Z,15.19
2022-10-28T00:23:42.278Z,15.10
2022-10-28T00:26:10.294Z,14.97
2022-10-28T00:28:41.282Z,14.85
2022-10-28T00:31:09.429Z,14.78
2022-10-28T00:33:36.174Z,14.78
2022-10-28T00:36:20.449Z,14.75
2022-10-28T00:38:48.292Z,14.79
2022-10-28T00:41:21.297Z,14.85
2022-10-28T00:43:50.628Z,14.91
2022-10-28T00:46:43.763Z,15.26
2022-10-28T00:49:27.631Z,15.16
2022-10-28T00:52:04.778Z,15.10
2022-10-28T00:54:31.762Z,15.04
2022-10-28T00:56:59.596Z,14.96
2022-10-28T00:59:29.138Z,15.13
2022-10-28T01:01:55.795Z,15.25
2022-10-28T01:04:23.013Z,15.40
2022-10-28T01:06:50.785Z,15.47
2022-10-28T01:09:18.493Z,15.56
2022-10-28T01:11:59.515Z,15.43
2022-10-28T01:14:44.357Z,15.31
2022-10-28T01:17:16.628Z,15.39
2022-10-28T01:19:53.979Z,15.34
2022-10-28T01:22:27.550Z,15.40
2022-10-28T01:25:06.324Z,15.25
2022-10-28T01:27:44.987Z,15.30
2022-10-28T01:30:15.062Z,15.35
2022-10-28T01:33:07.369Z,15.35
2022-10-28T01:35:50.038Z,15.60
2022-10-28T01:38:27.742Z,15.40
2022-10-28T01:41:03.667Z,15.40
2022-10-28T01:43:34.580Z,15.39
2022-10-28T01:46:06.643Z,15.36
2022-10-28T01:49:05.571Z,15.48
2022-10-28T01:51:35.890Z,15.53
2022-10-28T01:54:04.794Z,15.57
2022-10-28T01:56:34.159Z,15.73
2022-10-28T01:59:01.448Z,15.64
2022-10-28T02:01:29.815Z,15.80
2022-10-28T02:03:56.863Z,15.56
2022-10-28T02:06:25.723Z,15.65
2022-10-28T02:09:19.457Z,15.50
2022-10-28T02:12:07.845Z,15.54
2022-10-28T02:14:40.546Z,15.47
2022-10-28T02:17:10.622Z,15.56
2022-10-28T02:20:18.628Z,15.46
2022-10-28T02:22:50.413Z,15.35
2022-10-28T02:25:22.395Z,15.21
2022-10-28T02:28:00.339Z,15.23
2022-10-28T02:30:33.082Z,15.36
2022-10-28T02:33:01.869Z,15.76
2022-10-28T02:35:32.644Z,15.74
2022-10-28T02:38:02.242Z,15.92
2022-10-28T02:40:30.564Z,15.85
2022-10-28T02:43:00.976Z,15.83
2022-10-28T02:45:42.111Z,15.80
2022-10-28T02:48:13.092Z,16.02
2022-10-28T02:50:44.113Z,15.97
2022-10-28T02:53:19.187Z,15.89
2022-10-28T02:55:49.980Z,15.94
2022-10-28T02:58:16.663Z,15.94
2022-10-28T03:00:47.412Z,16.14
2022-10-28T03:03:14.107Z,16.03
2022-10-28T03:05:40.850Z,15.94
2022-10-28T03:08:07.405Z,16.09
2022-10-28T03:10:34.801Z,15.89
2022-10-28T03:13:01.366Z,15.92
2022-10-28T03:15:30.258Z,15.88
2022-10-28T03:17:56.791Z,16.12
2022-10-28T03:20:23.427Z,16.02
2022-10-28T03:22:49.955Z,15.96
2022-10-28T03:25:16.590Z,16.03
2022-10-28T03:27:43.116Z,16.20
2022-10-28T03:30:10.205Z,16.20
2022-10-28T03:32:36.784Z,16.07
2022-10-28T03:35:03.657Z,16.13
2022-10-28T03:37:30.467Z,16.15
2022-10-28T03:39:57.112Z,16.21
2022-10-28T03:42:23.707Z,16.07
2022-10-28T03:44:50.222Z,16.02
2022-10-28T03:47:16.796Z,16.08
2022-10-28T03:49:43.380Z,15.97
2022-10-28T03:52:10.000Z,15.93
2022-10-28T03:54:36.564Z,15.96
2022-10-28T03:57:03.232Z,15.92
2022-10-28T03:59:31.989Z,15.76
2022-10-28T04:01:58.692Z,15.78
2022-10-28T04:04:28.467Z,15.76
2022-10-28T04:06:57.506Z,15.86
2022-10-28T04:09:24.108Z,15.89
2022-10-28T04:11:50.711Z,15.82
2022-10-28T04:14:17.360Z,15.78
2022-10-28T04:16:43.951Z,15.91
2022-10-28T04:19:10.461Z,15.89
2022-10-28T04:21:37.001Z,15.96
2022-10-28T04:24:03.782Z,16.00
2022-10-28T04:26:31.796Z,15.93
2022-10-28T04:28:58.500Z,15.98
2022-10-28T04:31:25.052Z,15.97
2022-10-28T04:33:51.890Z,16.03
2022-10-28T04:36:19.177Z,15.92
2022-10-28T04:38:45.771Z,15.68
2022-10-28T04:41:13.655Z,15.65
2022-10-28T04:43:40.417Z,15.85
2022-10-28T04:46:07.012Z,16.00
2022-10-28T04:48:34.122Z,15.83
2022-10-28T04:51:00.817Z,15.95
2022-10-28T04:53:28.807Z,15.99
2022-10-28T04:55:59.393Z,15.93
2022-10-28T04:58:27.035Z,15.87
2022-10-28T05:00:53.578Z,15.82
2022-10-28T05:03:20.170Z,15.81
2022-10-28T05:05:47.520Z,15.63
2022-10-28T05:08:14.381Z,15.91
2022-10-28T05:10:40.938Z,15.86
2022-10-28T05:13:07.494Z,15.76
2022-10-28T05:15:34.046Z,15.61
2022-10-28T05:18:00.697Z,15.60
2022-10-28T05:20:27.313Z,15.70
2022-10-28T05:22:55.320Z,15.84
2022-10-28T05:25:22.701Z,15.74
2022-10-28T05:27:49.653Z,15.57
2022-10-28T05:30:16.639Z,15.68
2022-10-28T05:32:43.165Z,15.65
2022-10-28T05:35:09.980Z,15.80
2022-10-28T05:37:37.219Z,15.72
2022-10-28T05:40:04.501Z,15.67
2022-10-28T05:42:31.087Z,15.57
2022-10-28T05:44:57.709Z,15.34
2022-10-28T05:47:24.295Z,15.82
2022-10-28T05:49:50.956Z,15.69
2022-10-28T05:52:17.515Z,15.65
2022-10-28T05:54:44.095Z,15.82
2022-10-28T05:57:10.663Z,15.83
2022-10-28T05:59:37.274Z,15.74
2022-10-28T06:02:03.820Z,15.78
2022-10-28T06:04:31.037Z,15.85
2022-10-28T06:06:59.950Z,15.66
2022-10-28T06:09:28.335Z,15.76
2022-10-28T06:11:53.367Z,15.72
2022-10-28T06:14:19.981Z,15.80
2022-10-28T06:16:46.530Z,15.80
2022-10-28T06:19:13.111Z,15.71
2022-10-28T06:21:39.737Z,15.58
2022-10-28T06:24:11.221Z,15.62
2022-10-28T06:26:38.907Z,15.61
2022-10-28T06:29:05.500Z,15.60
2022-10-28T06:31:32.154Z,15.72
2022-10-28T06:33:58.697Z,15.52
2022-10-28T06:36:25.273Z,15.42
2022-10-28T06:38:52.003Z,15.59
2022-10-28T06:41:18.581Z,15.49
2022-10-28T06:43:45.117Z,15.46
2022-10-28T06:46:13.614Z,15.50
2022-10-28T06:48:41.681Z,15.63
2022-10-28T06:51:08.352Z,15.61
2022-10-28T06:53:34.932Z,15.73
2022-10-28T06:56:01.543Z,15.70
2022-10-28T06:58:28.184Z,15.62
2022-10-28T07:00:55.268Z,15.76
2022-10-28T07:03:22.088Z,15.85
2022-10-28T07:05:50.434Z,15.86
2022-10-28T07:08:17.186Z,16.02
2022-10-28T07:10:43.811Z,16.06
2022-10-28T07:13:10.416Z,16.11
2022-10-28T07:15:38.262Z,16.24
2022-10-28T07:18:04.812Z,16.44
2022-10-28T07:20:33.083Z,16.59
2022-10-28T07:23:01.789Z,16.65
2022-10-28T07:25:30.084Z,16.74
2022-10-28T07:27:58.078Z,16.75
2022-10-28T07:30:24.923Z,16.82
2022-10-28T07:32:51.834Z,16.78
2022-10-28T07:35:18.946Z,16.72
2022-10-28T07:37:45.620Z,16.86
2022-10-28T07:40:12.199Z,16.75
2022-10-28T07:42:38.801Z,16.65
2022-10-28T07:45:05.962Z,16.74
2022-10-28T07:47:32.556Z,16.68
2022-10-28T07:49:59.165Z,16.69
2022-10-28T07:52:25.855Z,16.66
2022-10-28T07:54:52.427Z,16.62
2022-10-28T07:57:19.510Z,16.60
2022-10-28T07:59:46.129Z,16.57
2022-10-28T08:02:17.892Z,16.66
2022-10-28T08:04:44.562Z,16.76
2022-10-28T08:07:11.846Z,16.80
2022-10-28T08:09:38.887Z,17.05
2022-10-28T08:12:06.195Z,16.96
2022-10-28T08:14:32.827Z,17.05
2022-10-28T08:16:59.616Z,17.10
2022-10-28T08:19:26.351Z,17.14
2022-10-28T08:21:52.965Z,17.14
2022-10-28T08:24:19.506Z,17.15
2022-10-28T08:26:46.084Z,17.28
2022-10-28T08:29:12.804Z,17.22
2022-10-28T08:31:39.638Z,17.21
2022-10-28T08:34:06.902Z,17.33
2022-10-28T08:36:34.202Z,17.28
2022-10-28T08:39:01.761Z,17.27
2022-10-28T08:41:35.985Z,17.38
2022-10-28T08:44:35.323Z,17.57
2022-10-28T08:47:19.716Z,17.61
2022-10-28T08:49:49.368Z,17.72
2022-10-28T08:52:18.833Z,17.72
2022-10-28T08:54:52.676Z,17.68
2022-10-28T08:57:57.187Z,17.73
2022-10-28T09:00:26.763Z,17.86
2022-10-28T09:03:12.747Z,17.74
2022-10-28T09:05:40.518Z,18.02
2022-10-28T09:08:25.529Z,18.07
2022-10-28T09:11:08.874Z,17.78
2022-10-28T09:13:59.560Z,17.87
2022-10-28T09:16:44.663Z,17.98
2022-10-28T09:19:24.779Z,17.86
2022-10-28T09:21:56.957Z,18.14
2022-10-28T09:24:29.695Z,18.45
2022-10-28T09:27:02.002Z,18.53
2022-10-28T09:29:44.568Z,18.36
2022-10-28T09:32:14.238Z,18.31
2022-10-28T09:35:02.128Z,18.46
2022-10-28T09:37:35.021Z,18.78
2022-10-28T09:40:07.618Z,18.80
2022-10-28T09:42:49.224Z,18.74
2022-10-28T09:45:25.768Z,18.59
2022-10-28T09:47:58.715Z,18.73
2022-10-28T09:50:29.942Z,18.94
2022-10-28T09:53:38.524Z,19.08
2022-10-28T09:56:06.563Z,18.92
2022-10-28T09:58:34.203Z,19.46
2022-10-28T10:01:01.753Z,19.35
2022-10-28T10:03:28.353Z,19.35
2022-10-28T10:05:56.388Z,19.19
2022-10-28T10:08:23.249Z,19.19
2022-10-28T10:10:49.765Z,19.15
2022-10-28T10:13:20.531Z,19.26
2022-10-28T10:16:17.067Z,19.61
2022-10-28T10:18:48.327Z,19.37
2022-10-28T10:21:16.573Z,19.91
2022-10-28T10:23:43.150Z,19.94
2022-10-28T10:26:13.737Z,19.97
2022-10-28T10:28:44.743Z,19.89
2022-10-28T10:31:26.327Z,19.95
2022-10-28T10:33:54.362Z,19.80
2022-10-28T10:36:28.346Z,20.11
2022-10-28T10:38:59.840Z,20.04
2022-10-28T10:41:43.853Z,19.99
2022-10-28T10:44:22.727Z,19.94
2022-10-28T10:46:55.251Z,20.00
2022-10-28T10:49:21.922Z,20.02
2022-10-28T10:52:14.741Z,20.22
2022-10-28T10:54:45.857Z,20.54
2022-10-28T10:57:22.288Z,20.42
2022-10-28T10:59:51.322Z,20.62
2022-10-28T11:02:27.710Z,20.59
2022-10-28T11:05:00.038Z,20.78
2022-10-28T11:07:28.282Z,21.04
2022-10-28T11:09:55.707Z,21.09
2022-10-28T11:12:27.542Z,21.03
2022-10-28T11:14:59.692Z,20.91
2022-10-28T11:20:24.941Z,21.17
2022-10-28T11:23:00.139Z,21.04
2022-10-28T11:25:32.197Z,21.07
2022-10-28T11:28:33.750Z,21.04
2022-10-28T11:31:09.518Z,21.04
2022-10-28T11:34:03.939Z,21.29
2022-10-28T11:36:34.822Z,21.40
2022-10-28T11:39:10.626Z,21.20
2022-10-28T11:41:55.931Z,20.94
2022-10-28T11:47:18.483Z,20.89
2022-10-28T11:49:51.118Z,21.10
2022-10-28T11:52:17.725Z,20.93
2022-10-28T11:55:14.451Z,21.15
2022-10-28T12:00:56.979Z,21.06
2022-10-28T12:03:48.299Z,20.87
2022-10-28T12:06:49.281Z,20.91
2022-10-28T12:09:21.760Z,20.91
2022-10-28T12:12:02.709Z,20.97
2022-10-28T12:14:47.619Z,20.72
2022-10-28T12:17:19.956Z,20.82
2022-10-28T12:20:18.741Z,21.23
2022-10-28T12:22:57.519Z,21.55
2022-10-28T12:25:27.171Z,21.53
2022-10-28T12:27:59.779Z,21.62
2022-10-28T12:30:29.623Z,21.53
2022-10-28T12:33:00.553Z,21.43
2022-10-28T12:35:35.674Z,21.37
2022-10-28T12:38:13.915Z,21.41
2022-10-28T12:40:52.137Z,21.52
2022-10-28T12:43:25.102Z,21.68
2022-10-28T12:45:54.671Z,21.66
2022-10-28T12:48:24.296Z,21.68
2022-10-28T12:50:53.543Z,21.52
2022-10-28T12:53:37.149Z,21.56
2022-10-28T12:56:08.226Z,21.48
2022-10-28T12:58:39.784Z,21.58
2022-10-28T13:01:15.967Z,21.80
2022-10-28T13:03:42.810Z,21.80
2022-10-28T13:06:28.244Z,21.62
2022-10-28T13:09:14.007Z,21.54
2022-10-28T13:11:58.853Z,21.38
2022-10-28T13:14:47.339Z,21.30
2022-10-28T13:17:16.998Z,21.29
2022-10-28T13:19:43.518Z,21.37
2022-10-28T13:22:21.210Z,21.34
2022-10-28T13:25:14.128Z,21.15
2022-10-28T13:27:41.082Z,21.24
2022-10-28T13:30:16.810Z,21.09
2022-10-28T13:32:43.953Z,21.22
2022-10-28T13:35:25.480Z,21.10
2022-10-28T13:37:54.264Z,21.01
2022-10-28T13:40:43.244Z,20.92
2022-10-28T13:43:20.507Z,20.95
2022-10-28T13:45:55.123Z,20.91
2022-10-28T13:48:40.062Z,20.83
2022-10-28T13:51:09.906Z,20.94
2022-10-28T13:53:46.682Z,21.08
2022-10-28T13:56:44.200Z,21.04
2022-10-28T13:59:10.986Z,20.96
2022-10-28T14:01:44.022Z,20.75
2022-10-28T14:04:21.643Z,20.73
2022-10-28T14:06:48.544Z,20.67
2022-10-28T14:09:28.414Z,20.61
2022-10-28T14:12:17.574Z,20.61
2022-10-28T14:14:55.396Z,20.51
2022-10-28T14:17:24.724Z,20.53
2022-10-28T14:19:52.535Z,20.47
2022-10-28T14:22:36.382Z,20.39
2022-10-28T14:25:03.732Z,20.23
2022-10-28T14:27:31.457Z,20.29
2022-10-28T14:29:58.295Z,20.30
2022-10-28T14:32:31.041Z,20.28
2022-10-28T14:35:15.806Z,20.30
2022-10-28T14:37:57.914Z,20.17
2022-10-28T14:40:44.870Z,20.05
2022-10-28T14:43:14.720Z,20.06
2022-10-28T14:46:01.405Z,19.79
2022-10-28T14:48:48.097Z,19.57
2022-10-28T14:51:17.780Z,19.57
2022-10-28T14:53:45.631Z,19.64
2022-10-28T14:56:18.351Z,19.56
2022-10-28T14:58:45.561Z,19.37
2022-10-28T15:01:18.625Z,19.27
2022-10-28T15:03:54.926Z,19.20
2022-10-28T15:06:37.471Z,19.30
2022-10-28T15:09:08.729Z,19.19
2022-10-28T15:11:35.433Z,19.13
2022-10-28T15:14:25.208Z,19.05
2022-10-28T15:16:52.469Z,18.92
2022-10-28T15:19:21.779Z,18.84
2022-10-28T15:22:01.462Z,18.75
2022-10-28T15:24:28.452Z,18.65
2022-10-28T15:27:01.973Z,18.62
2022-10-28T15:29:28.761Z,18.57
2022-10-28T15:32:04.449Z,18.68
2022-10-28T15:34:31.061Z,18.78
2022-10-28T15:39:25.938Z,18.62
2022-10-28T15:41:53.845Z,18.55
2022-10-28T15:44:32.695Z,18.38
2022-10-28T15:47:00.891Z,18.31
2022-10-28T15:49:38.952Z,18.15
2022-10-28T15:52:17.671Z,18.11
2022-10-28T15:54:58.562Z,18.61
2022-10-28T15:57:28.687Z,18.48
2022-10-28T16:00:27.794Z,18.24
2022-10-28T16:02:57.769Z,18.09
2022-10-28T16:05:42.690Z,18.02
2022-10-28T16:08:18.555Z,18.11
2022-10-28T16:10:48.824Z,18.13
2022-10-28T16:13:28.365Z,17.96
2022-10-28T16:15:58.601Z,17.92
2022-10-28T16:18:27.362Z,17.91
2022-10-28T16:20:55.182Z,17.98
2022-10-28T16:23:24.436Z,17.99
2022-10-28T16:25:51.009Z,17.83
2022-10-28T16:28:24.589Z,17.59
2022-10-28T16:30:55.825Z,17.48
2022-10-28T16:33:28.510Z,17.55
2022-10-28T16:35:55.335Z,17.45
2022-10-28T16:38:21.958Z,17.38
2022-10-28T16:40:52.355Z,17.21
2022-10-28T16:43:21.880Z,17.17
2022-10-28T16:45:49.403Z,17.17
2022-10-28T16:48:17.494Z,17.24
2022-10-28T16:50:48.947Z,17.37
2022-10-28T16:53:15.545Z,17.46
2022-10-28T16:55:42.394Z,17.60
2022-10-28T16:58:09.258Z,17.86
2022-10-28T17:00:36.778Z,17.96
2022-10-28T17:03:03.408Z,18.33
2022-10-28T17:05:30.309Z,18.18
2022-10-28T17:07:58.086Z,18.15
2022-10-28T17:10:24.992Z,18.15
2022-10-28T17:12:51.850Z,18.38
2022-10-28T17:15:18.885Z,18.32
2022-10-28T17:17:49.476Z,18.26
2022-10-28T17:20:16.312Z,18.19
2022-10-28T17:22:42.927Z,18.17
2022-10-28T17:25:09.794Z,18.18
2022-10-28T17:27:36.519Z,18.15
2022-10-28T17:30:03.770Z,17.96
2022-10-28T17:32:30.500Z,17.93
2022-10-28T17:34:57.176Z,17.73
2022-10-28T17:37:23.757Z,17.75
2022-10-28T17:39:50.541Z,17.76
2022-10-28T17:42:17.403Z,17.69
2022-10-28T17:44:44.046Z,17.97
2022-10-28T17:47:12.181Z,17.96
2022-10-28T17:49:38.901Z,18.08
2022-10-28T17:52:05.643Z,18.19
2022-10-28T17:54:32.366Z,17.93
2022-10-28T17:56:58.946Z,17.98
2022-10-28T17:59:25.609Z,17.94
2022-10-28T18:01:52.425Z,17.93
2022-10-28T18:04:20.249Z,18.04
2022-10-28T18:06:46.945Z,17.91
2022-10-28T18:09:13.610Z,17.82
2022-10-28T18:11:40.852Z,17.81
2022-10-28T18:14:07.434Z,17.73
2022-10-28T18:16:36.254Z,18.00
2022-10-28T18:19:06.486Z,18.13
2022-10-28T18:21:33.723Z,18.10
2022-10-28T18:24:06.400Z,18.19
2022-10-28T18:26:37.961Z,18.17
2022-10-28T18:29:06.116Z,17.91
2022-10-28T18:31:33.549Z,17.98
2022-10-28T18:34:01.199Z,17.66
2022-10-28T18:36:30.673Z,17.63
2022-10-28T18:39:00.535Z,17.59
2022-10-28T18:41:29.037Z,17.83
2022-10-28T18:44:04.417Z,17.90
2022-10-28T18:46:34.368Z,17.77
2022-10-28T18:51:33.788Z,17.70
2022-10-28T18:54:00.490Z,17.71
2022-10-28T18:56:30.986Z,17.55
2022-10-28T18:58:58.252Z,17.53
2022-10-28T19:01:27.410Z,17.49
2022-10-28T19:03:59.087Z,17.44
2022-10-28T19:06:29.713Z,17.40
2022-10-28T19:08:57.085Z,17.26
2022-10-28T19:11:30.097Z,17.24
2022-10-28T19:13:58.377Z,17.20
2022-10-28T19:16:27.444Z,17.32
2022-10-28T19:18:57.953Z,17.21
2022-10-28T19:21:25.134Z,17.16
2022-10-28T19:23:51.819Z,17.14
2022-10-28T19:26:18.737Z,17.00
2022-10-28T19:28:46.945Z,17.13
2022-10-28T19:31:18.565Z,17.05
2022-10-28T19:33:45.627Z,17.06
2022-10-28T19:36:20.831Z,17.09
2022-10-28T19:38:48.814Z,17.10
2022-10-28T19:41:19.024Z,17.14
2022-10-28T19:43:46.107Z,17.05
2022-10-28T19:46:17.762Z,17.12
2022-10-28T19:48:50.277Z,16.99
2022-10-28T19:51:21.975Z,16.99
2022-10-28T19:53:56.529Z,17.01
2022-10-28T19:56:23.811Z,17.11
2022-10-28T19:58:54.415Z,17.07
2022-10-28T20:01:22.304Z,17.03
2022-10-28T20:03:53.216Z,17.29
2022-10-28T20:06:21.981Z,17.21
2022-10-28T20:08:49.512Z,17.23
2022-10-28T20:11:24.792Z,17.22
2022-10-28T20:13:58.011Z,17.01
2022-10-28T20:16:25.437Z,17.07
2022-10-28T20:18:53.767Z,17.03
2022-10-28T20:21:21.774Z,17.00
2022-10-28T20:26:27.805Z,17.04
2022-10-28T20:28:55.008Z,16.84
2022-10-28T20:31:24.154Z,16.89
2022-10-28T20:33:55.524Z,17.01
2022-10-28T20:36:29.447Z,17.10
2022-10-28T20:39:00.028Z,17.09
2022-10-28T20:41:29.183Z,17.04
2022-10-28T20:43:55.882Z,17.18
2022-10-28T20:46:23.926Z,17.14
2022-10-28T20:48:50.899Z,16.97
2022-10-28T20:51:17.528Z,16.83
2022-10-28T20:53:44.158Z,16.84
2022-10-28T20:56:30.799Z,16.85
2022-10-28T20:58:57.907Z,16.77
2022-10-28T21:01:30.058Z,16.96
2022-10-28T21:03:59.447Z,16.76
2022-10-28T21:06:27.276Z,16.64
2022-10-28T21:08:54.609Z,16.59
2022-10-28T21:11:22.793Z,16.55
2022-10-28T21:13:51.944Z,16.46
2022-10-28T21:16:19.127Z,16.30
2022-10-28T21:18:45.715Z,16.16
2022-10-28T21:21:12.412Z,16.05
2022-10-28T21:23:39.185Z,15.92
2022-10-28T21:26:06.934Z,15.95
2022-10-28T21:28:34.221Z,15.84
2022-10-28T21:31:05.700Z,15.77
2022-10-28T21:33:34.063Z,15.80
2022-10-28T21:36:03.433Z,15.92
2022-10-28T21:38:30.125Z,15.87
2022-10-28T21:41:00.742Z,15.82
2022-10-28T21:43:32.073Z,15.75
2022-10-28T21:45:58.835Z,15.68
2022-10-28T21:48:26.880Z,15.57
2022-10-28T21:50:55.693Z,15.51
2022-10-28T21:53:22.695Z,15.41
2022-10-28T21:55:51.138Z,15.38
2022-10-28T21:58:18.359Z,15.35
2022-10-28T22:00:45.505Z,15.30
2022-10-28T22:03:13.185Z,15.28
2022-10-28T22:05:39.791Z,15.33
2022-10-28T22:08:06.464Z,15.33
2022-10-28T22:10:33.048Z,15.33
2022-10-28T22:12:59.617Z,15.34
2022-10-28T22:15:26.217Z,15.36
2022-10-28T22:17:52.945Z,15.33
2022-10-28T22:20:19.829Z,15.38
2022-10-28T22:22:46.455Z,15.41
2022-10-28T22:25:13.024Z,15.56
2022-10-28T22:27:39.682Z,15.60
2022-10-28T22:30:06.685Z,15.81
2022-10-28T22:32:33.272Z,15.78
2022-10-28T22:34:59.863Z,15.71
2022-10-28T22:37:26.473Z,15.60
2022-10-28T22:39:53.099Z,15.53
2022-10-28T22:42:19.674Z,15.49
2022-10-28T22:44:46.204Z,15.50
2022-10-28T22:47:12.768Z,15.52
2022-10-28T22:49:39.472Z,15.55
2022-10-28T22:52:06.112Z,15.51
2022-10-28T22:54:32.696Z,15.59
2022-10-28T22:56:59.388Z,15.64
2022-10-28T22:59:25.971Z,15.64
2022-10-28T23:01:54.007Z,15.87
2022-10-28T23:04:20.655Z,15.89
2022-10-28T23:06:47.282Z,15.93
2022-10-28T23:09:13.846Z,15.88
2022-10-28T23:11:40.392Z,15.72
2022-10-28T23:14:07.081Z,15.64
2022-10-28T23:16:33.722Z,15.51
2022-10-28T23:19:01.051Z,15.45
2022-10-28T23:21:27.779Z,15.41
2022-10-28T23:23:56.277Z,15.53
2022-10-28T23:26:23.473Z,15.57
2022-10-28T23:28:54.424Z,15.52
2022-10-28T23:31:22.047Z,15.49
2022-10-28T23:33:48.710Z,15.53
2022-10-28T23:36:15.937Z,15.57
2022-10-28T23:38:42.750Z,15.71
2022-10-28T23:41:11.399Z,15.73
2022-10-28T23:43:38.244Z,15.65
2022-10-28T23:46:05.254Z,15.60
2022-10-28T23:48:32.113Z,15.57
2022-10-28T23:50:58.780Z,15.54
2022-10-28T23:53:25.485Z,15.54
2022-10-28T23:55:52.570Z,15.51
2022-10-28T23:58:20.729Z,15.44
